createdAt,value
2023-09-24T00:00:00.413Z,5
2023-09-24T00:04:00.476Z,5
2023-09-24T00:08:00.380Z,7
2023-09-24T00:12:00.409Z,8
2023-09-24T00:16:00.402Z,9
2023-09-24T00:20:00.420Z,8
2023-09-24T00:24:00.443Z,8
2023-09-24T00:28:00.378Z,13
2023-09-24T00:32:02.270Z,5
2023-09-24T00:36:00.449Z,6
2023-09-24T00:40:00.366Z,7
2023-09-24T00:44:00.380Z,7
2023-09-24T00:48:00.440Z,8
2023-09-24T00:52:00.373Z,8
2023-09-24T00:56:00.379Z,5
2023-09-24T01:00:00.477Z,10
2023-09-24T01:04:00.567Z,9
2023-09-24T01:08:00.364Z,5
2023-09-24T01:12:00.447Z,7
2023-09-24T01:16:00.389Z,10
2023-09-24T01:20:00.371Z,8
2023-09-24T01:24:00.699Z,9
2023-09-24T01:28:00.423Z,6
2023-09-24T01:32:00.373Z,8
2023-09-24T01:36:00.452Z,8
2023-09-24T01:40:00.473Z,7
2023-09-24T01:44:00.374Z,9
2023-09-24T01:48:00.460Z,10
2023-09-24T01:52:00.381Z,11
2023-09-24T01:56:00.405Z,7
2023-09-24T02:00:00.406Z,10
2023-09-24T02:04:00.472Z,6
2023-09-24T02:08:00.376Z,8
2023-09-24T02:12:00.427Z,5
2023-09-24T02:16:00.347Z,8
2023-09-24T02:20:00.363Z,6
2023-09-24T02:24:00.462Z,7
2023-09-24T02:28:00.372Z,8
2023-09-24T02:32:00.374Z,5
2023-09-24T02:36:00.384Z,8
2023-09-24T02:40:00.371Z,7
2023-09-24T02:44:00.364Z,5
2023-09-24T02:48:00.423Z,5
2023-09-24T02:52:00.360Z,6
2023-09-24T02:56:00.350Z,5
2023-09-24T03:00:00.455Z,5
2023-09-24T03:04:00.522Z,7
2023-09-24T03:08:00.384Z,6
2023-09-24T03:12:00.385Z,6
2023-09-24T03:16:00.459Z,9
2023-09-24T03:20:00.353Z,5
2023-09-24T03:24:00.399Z,7
2023-09-24T03:28:00.369Z,6
2023-09-24T03:32:00.412Z,6
2023-09-24T03:36:00.413Z,4
2023-09-24T03:40:00.379Z,4
2023-09-24T03:44:00.358Z,6
2023-09-24T03:48:00.458Z,10
2023-09-24T03:52:00.361Z,7
2023-09-24T03:56:00.382Z,5
2023-09-24T04:00:00.441Z,6
2023-09-24T04:04:00.650Z,9
2023-09-24T04:08:00.352Z,7
2023-09-24T04:12:00.441Z,7
2023-09-24T04:16:00.370Z,7
2023-09-24T04:20:00.440Z,6
2023-09-24T04:24:00.401Z,9
2023-09-24T04:28:00.345Z,4
2023-09-24T04:32:00.402Z,4
2023-09-24T04:36:00.393Z,5
2023-09-24T04:40:00.388Z,6
2023-09-24T04:44:00.377Z,4
2023-09-24T04:48:00.496Z,7
2023-09-24T04:52:00.366Z,7
2023-09-24T04:56:00.352Z,7
2023-09-24T05:00:00.495Z,4
2023-09-24T05:04:00.780Z,6
2023-09-24T05:08:00.366Z,8
2023-09-24T05:12:00.461Z,5
2023-09-24T05:16:00.391Z,5
2023-09-24T05:20:00.375Z,5
2023-09-24T05:24:00.490Z,5
2023-09-24T05:28:00.367Z,5
2023-09-24T05:32:00.367Z,5
2023-09-24T05:36:00.435Z,4
2023-09-24T05:40:00.635Z,4
2023-09-24T05:44:00.365Z,6
2023-09-24T05:48:00.420Z,7
2023-09-24T05:52:00.377Z,9
2023-09-24T05:56:00.392Z,6
2023-09-24T06:00:00.464Z,6
2023-09-24T06:04:00.545Z,5
2023-09-24T06:08:00.392Z,7
2023-09-24T06:12:00.436Z,9
2023-09-24T06:16:00.407Z,6
2023-09-24T06:20:00.372Z,5
2023-09-24T06:24:00.411Z,5
2023-09-24T06:28:00.377Z,7
2023-09-24T06:32:00.382Z,7
2023-09-24T06:36:00.441Z,8
2023-09-24T06:40:00.385Z,11
2023-09-24T06:44:00.372Z,5
2023-09-24T06:48:00.453Z,6
2023-09-24T06:52:00.383Z,9
2023-09-24T06:56:00.374Z,9
2023-09-24T07:00:00.471Z,9
2023-09-24T07:04:00.565Z,12
2023-09-24T07:08:00.366Z,12
2023-09-24T07:12:00.433Z,9
2023-09-24T07:16:00.382Z,11
2023-09-24T07:20:00.354Z,11
2023-09-24T07:24:00.388Z,8
2023-09-24T07:28:00.353Z,9
2023-09-24T07:32:00.375Z,9
2023-09-24T07:36:00.418Z,7
2023-09-24T07:40:00.405Z,9
2023-09-24T07:44:00.375Z,12
2023-09-24T07:48:00.453Z,11
2023-09-24T07:52:00.378Z,6
2023-09-24T07:56:00.411Z,8
2023-09-24T08:00:00.433Z,9
2023-09-24T08:04:00.570Z,10
2023-09-24T08:08:00.368Z,7
2023-09-24T08:12:00.406Z,11
2023-09-24T08:16:00.536Z,9
2023-09-24T08:20:00.361Z,8
2023-09-24T08:24:00.413Z,7
2023-09-24T08:28:00.364Z,7
2023-09-24T08:32:00.389Z,7
2023-09-24T08:36:00.419Z,7
2023-09-24T08:40:00.374Z,10
2023-09-24T08:44:00.379Z,8
2023-09-24T08:48:00.466Z,6
2023-09-24T08:52:00.394Z,7
2023-09-24T08:56:00.382Z,6
2023-09-24T09:00:00.414Z,6
2023-09-24T09:04:00.528Z,5
2023-09-24T09:08:00.355Z,8
2023-09-24T09:12:00.453Z,7
2023-09-24T09:16:00.363Z,7
2023-09-24T09:20:00.400Z,9
2023-09-24T09:24:00.430Z,6
2023-09-24T09:28:00.380Z,5
2023-09-24T09:32:01.993Z,5
2023-09-24T09:36:00.449Z,5
2023-09-24T09:40:00.381Z,6
2023-09-24T09:44:00.385Z,8
2023-09-24T09:48:00.430Z,5
2023-09-24T09:52:00.424Z,5
2023-09-24T09:56:00.379Z,6
2023-09-24T10:00:00.440Z,8
2023-09-24T10:04:00.356Z,4
2023-09-24T10:08:00.377Z,4
2023-09-24T10:12:00.429Z,4
2023-09-24T10:16:00.458Z,5
2023-09-24T10:20:00.517Z,5
2023-09-24T10:24:00.470Z,5
2023-09-24T10:28:08.257Z,5
2023-09-24T10:32:00.405Z,5
2023-09-24T10:36:00.428Z,4
2023-09-24T10:40:00.403Z,4
2023-09-24T10:44:00.368Z,3
2023-09-24T10:48:00.436Z,4
2023-09-24T10:52:00.653Z,3
2023-09-24T10:56:10.892Z,3
2023-09-24T11:00:00.423Z,5
2023-09-24T11:04:00.509Z,3
2023-09-24T11:08:00.372Z,4
2023-09-24T11:12:00.382Z,6
2023-09-24T11:16:00.443Z,3
2023-09-24T11:20:00.388Z,3
2023-09-24T11:24:00.427Z,7
2023-09-24T11:28:00.388Z,5
2023-09-24T11:32:00.388Z,5
2023-09-24T11:36:00.413Z,4
2023-09-24T11:40:00.380Z,5
2023-09-24T11:44:00.383Z,4
2023-09-24T11:48:00.503Z,6
2023-09-24T11:52:00.377Z,3
2023-09-24T11:56:00.432Z,4
2023-09-24T12:00:00.446Z,3
2023-09-24T12:04:00.521Z,2
2023-09-24T12:08:00.399Z,2
2023-09-24T12:12:00.411Z,3
2023-09-24T12:16:00.479Z,4
2023-09-24T12:20:00.375Z,3
2023-09-24T12:24:00.408Z,2
2023-09-24T12:28:00.355Z,4
2023-09-24T12:32:00.376Z,4
2023-09-24T12:36:00.397Z,4
2023-09-24T12:40:00.360Z,6
2023-09-24T12:44:00.381Z,3
2023-09-24T12:48:00.517Z,7
2023-09-24T12:52:02.449Z,3
2023-09-24T12:56:00.375Z,5
2023-09-24T13:00:00.567Z,3
2023-09-24T13:04:00.624Z,6
2023-09-24T13:08:00.369Z,4
2023-09-24T13:12:00.416Z,3
2023-09-24T13:16:00.416Z,3
2023-09-24T13:20:00.359Z,2
2023-09-24T13:24:00.403Z,3
2023-09-24T13:28:00.375Z,2
2023-09-24T13:32:03.302Z,3
2023-09-24T13:36:00.385Z,3
2023-09-24T13:40:00.370Z,4
2023-09-24T13:44:00.391Z,1
2023-09-24T13:48:00.521Z,1
2023-09-24T13:52:00.366Z,2
2023-09-24T13:56:00.370Z,1
2023-09-24T14:00:00.400Z,2
2023-09-24T14:04:00.502Z,2
2023-09-24T14:08:00.371Z,1
2023-09-24T14:12:00.392Z,1
2023-09-24T14:16:00.464Z,2
2023-09-24T14:20:00.359Z,1
2023-09-24T14:24:00.411Z,2
2023-09-24T14:28:00.375Z,2
2023-09-24T14:32:00.359Z,3
2023-09-24T14:36:00.451Z,1
2023-09-24T14:40:00.400Z,2
2023-09-24T14:44:00.392Z,4
2023-09-24T14:48:00.451Z,1
2023-09-24T14:52:00.496Z,2
2023-09-24T14:56:00.373Z,5
2023-09-24T15:00:00.396Z,2
2023-09-24T15:04:00.510Z,4
2023-09-24T15:08:00.368Z,1
2023-09-24T15:12:00.430Z,2
2023-09-24T15:16:00.366Z,2
2023-09-24T15:20:00.384Z,3
2023-09-24T15:24:00.403Z,1
2023-09-24T15:28:00.385Z,3
2023-09-24T15:32:00.394Z,2
2023-09-24T15:36:00.408Z,5
2023-09-24T15:40:00.358Z,2
2023-09-24T15:44:00.364Z,3
2023-09-24T15:48:00.440Z,4
2023-09-24T15:52:00.354Z,6
2023-09-24T15:56:00.362Z,3
2023-09-24T16:00:00.410Z,2
2023-09-24T16:04:00.398Z,4
2023-09-24T16:08:00.366Z,5
2023-09-24T16:12:00.399Z,5
2023-09-24T16:16:00.389Z,3
2023-09-24T16:20:00.388Z,3
2023-09-24T16:24:00.394Z,11
2023-09-24T16:28:00.383Z,3
2023-09-24T16:32:00.421Z,4
2023-09-24T16:36:00.392Z,4
2023-09-24T16:40:00.367Z,7
2023-09-24T16:44:00.377Z,14
2023-09-24T16:48:00.470Z,14
2023-09-24T16:52:00.363Z,18
2023-09-24T16:56:00.391Z,9
2023-09-24T17:00:00.502Z,8
2023-09-24T17:04:00.590Z,8
2023-09-24T17:08:00.354Z,8
2023-09-24T17:12:00.400Z,9
2023-09-24T17:16:00.418Z,8
2023-09-24T17:20:00.351Z,9
2023-09-24T17:24:00.638Z,6
2023-09-24T17:28:00.378Z,6
2023-09-24T17:32:00.447Z,7
2023-09-24T17:36:00.395Z,7
2023-09-24T17:40:00.375Z,4
2023-09-24T17:44:00.376Z,4
2023-09-24T17:48:00.485Z,8
2023-09-24T17:52:00.365Z,9
2023-09-24T17:56:00.379Z,7
2023-09-24T18:00:00.418Z,8
2023-09-24T18:04:00.459Z,9
2023-09-24T18:08:00.391Z,13
2023-09-24T18:12:00.419Z,13
2023-09-24T18:16:00.404Z,12
2023-09-24T18:20:00.381Z,12
2023-09-24T18:24:00.424Z,10
2023-09-24T18:28:00.385Z,17
2023-09-24T18:32:00.372Z,16
2023-09-24T18:36:00.483Z,15
2023-09-24T18:40:00.539Z,16
2023-09-24T18:44:00.397Z,12
2023-09-24T18:48:00.508Z,20
2023-09-24T18:52:00.365Z,15
2023-09-24T18:56:00.427Z,11
2023-09-24T19:00:00.433Z,13
2023-09-24T19:04:00.605Z,14
2023-09-24T19:08:00.410Z,17
2023-09-24T19:12:00.400Z,14
2023-09-24T19:16:00.416Z,13
2023-09-24T19:20:00.380Z,20
2023-09-24T19:24:00.412Z,16
2023-09-24T19:28:00.356Z,13
2023-09-24T19:32:00.476Z,12
2023-09-24T19:36:00.437Z,15
2023-09-24T19:40:00.393Z,14
2023-09-24T19:44:00.396Z,12
2023-09-24T19:48:00.472Z,12
2023-09-24T19:52:00.387Z,13
2023-09-24T19:56:00.398Z,12
2023-09-24T20:00:00.432Z,10
2023-09-24T20:04:00.382Z,8
2023-09-24T20:08:00.381Z,5
2023-09-24T20:12:00.432Z,6
2023-09-24T20:16:00.463Z,8
2023-09-24T20:20:00.408Z,5
2023-09-24T20:24:00.436Z,9
2023-09-24T20:28:00.394Z,6
2023-09-24T20:32:00.372Z,7
2023-09-24T20:36:00.453Z,7
2023-09-24T20:40:00.368Z,6
2023-09-24T20:44:00.382Z,5
2023-09-24T20:48:00.550Z,5
2023-09-24T20:52:00.382Z,8
2023-09-24T20:56:00.400Z,8
2023-09-24T21:00:00.451Z,6
2023-09-24T21:04:00.401Z,5
2023-09-24T21:08:00.371Z,7
2023-09-24T21:12:00.415Z,6
2023-09-24T21:16:00.397Z,7
2023-09-24T21:20:00.395Z,5
2023-09-24T21:24:00.426Z,5
2023-09-24T21:28:00.470Z,7
2023-09-24T21:32:00.385Z,6
2023-09-24T21:36:00.426Z,7
2023-09-24T21:40:00.362Z,7
2023-09-24T21:44:00.382Z,4
2023-09-24T21:48:00.462Z,6
2023-09-24T21:52:00.360Z,5
2023-09-24T21:56:00.369Z,10
2023-09-24T22:00:00.416Z,6
2023-09-24T22:04:00.550Z,7
2023-09-24T22:08:00.389Z,8
2023-09-24T22:12:00.396Z,6
2023-09-24T22:16:00.395Z,10
2023-09-24T22:20:00.388Z,8
2023-09-24T22:24:00.452Z,8
2023-09-24T22:28:00.378Z,9
2023-09-24T22:32:00.428Z,8
2023-09-24T22:36:00.445Z,6
2023-09-24T22:40:00.364Z,7
2023-09-24T22:44:00.375Z,11
2023-09-24T22:48:00.481Z,11
2023-09-24T22:52:00.382Z,8
2023-09-24T22:56:00.371Z,9
2023-09-24T23:00:00.430Z,10
2023-09-24T23:04:00.567Z,11
2023-09-24T23:08:00.388Z,9
2023-09-24T23:12:00.385Z,6
2023-09-24T23:16:00.418Z,8
2023-09-24T23:20:00.380Z,12
2023-09-24T23:24:00.449Z,12
2023-09-24T23:28:00.374Z,9
2023-09-24T23:32:00.397Z,7
2023-09-24T23:36:00.481Z,7
2023-09-24T23:40:00.370Z,6
2023-09-24T23:44:00.412Z,6
2023-09-24T23:48:00.516Z,5
2023-09-24T23:52:00.366Z,6
2023-09-24T23:56:00.378Z,6
